Time;durP1;ratioP1;P1;durP2;ratioP2;P2;SDS_P1;SDS_P2;PMS_P1;PMS_P2;Temp;Humidity;BMP_temperature;BMP_pressure;BME280_temperature;BME280_humidity;BME280_pressure;Samples;Min_cycle;Max_cycle;Signal;HPM_P1;HPM_P2
2023/05/20 00:01:51;;;;;;;;;29.67;24.00;;;;;16.09;68.94;99672.69;6061929;28;96262;-64
2023/05/20 00:04:54;;;;;;;;;26.00;22.00;;;;;16.15;68.81;99658.13;6075555;28;96291;-64
2023/05/20 00:07:59;;;;;;;;;28.00;24.50;;;;;16.17;68.66;99665.00;6097647;28;96564;-63
2023/05/20 00:11:03;;;;;;;;;27.40;24.20;;;;;16.23;68.27;99669.47;6071590;28;96529;-64
2023/05/20 00:14:06;;;;;;;;;25.00;21.80;;;;;16.20;68.15;99664.50;6074677;28;96240;-63
2023/05/20 00:17:10;;;;;;;;;24.40;21.40;;;;;16.18;67.97;99654.91;6096447;28;96228;-63
2023/05/20 00:20:13;;;;;;;;;22.00;19.00;;;;;16.01;68.46;99654.84;6093240;28;96667;-64
2023/05/20 00:23:18;;;;;;;;;23.80;20.80;;;;;16.06;68.62;99665.84;6056314;28;96416;-63
2023/05/20 00:26:21;;;;;;;;;21.60;19.00;;;;;16.11;68.77;99668.66;6075037;28;96239;-63
2023/05/20 00:29:29;;;;;;;;;25.40;22.40;;;;;16.18;68.47;99661.19;6096579;28;97171;-63
2023/05/20 00:32:33;;;;;;;;;24.75;21.75;;;;;16.21;68.20;99663.44;6078952;28;96497;-64
2023/05/20 00:35:36;;;;;;;;;26.40;23.20;;;;;16.27;68.19;99661.66;6075689;28;96957;-64
2023/05/20 00:38:41;;;;;;;;;25.50;22.00;;;;;16.30;68.30;99651.13;6105733;28;96241;-63
2023/05/20 00:41:44;;;;;;;;;25.50;23.00;;;;;16.30;68.39;99655.75;6081628;28;96252;-63
2023/05/20 00:44:49;;;;;;;;;26.60;22.00;;;;;16.31;68.42;99650.06;6091917;28;96586;-63
2023/05/20 00:47:56;;;;;;;;;27.00;24.60;;;;;16.31;68.20;99647.34;6055001;28;96589;-64
2023/05/20 00:51:00;;;;;;;;;24.25;21.50;;;;;16.32;68.43;99645.44;6054315;28;97251;-63
2023/05/20 00:54:05;;;;;;;;;31.00;27.80;;;;;16.35;68.33;99640.34;6077614;28;96995;-63
2023/05/20 00:57:09;;;;;;;;;28.60;23.80;;;;;16.32;68.59;99638.09;6058883;28;97037;-64
2023/05/20 01:00:14;;;;;;;;;29.40;25.60;;;;;16.31;68.83;99641.06;6093868;28;96366;-64
2023/05/20 01:03:18;;;;;;;;;24.00;22.25;;;;;16.31;68.65;99641.06;6060100;28;96527;-63
2023/05/20 01:06:21;;;;;;;;;28.20;24.60;;;;;16.27;68.82;99645.34;6058217;28;96566;-64
2023/05/20 01:09:26;;;;;;;;;28.80;24.80;;;;;16.27;69.09;99634.47;6062947;28;96263;-64
2023/05/20 01:12:36;;;;;;;;;26.40;22.40;;;;;16.28;69.12;99639.63;6049962;28;97568;-63
2023/05/20 01:15:40;;;;;;;;;26.00;23.00;;;;;16.18;69.34;99628.53;6047682;28;96455;-64
2023/05/20 01:18:47;;;;;;;;;30.00;25.75;;;;;16.21;69.51;99628.09;6069826;28;96416;-63
2023/05/20 01:21:53;;;;;;;;;29.40;26.00;;;;;16.18;69.94;99625.81;6067518;28;96188;-63
2023/05/20 01:24:58;;;;;;;;;32.00;27.20;;;;;16.16;70.12;99635.31;6068184;28;96109;-63
2023/05/20 01:28:02;;;;;;;;;27.00;23.00;;;;;16.00;70.30;99606.94;6067649;28;96861;-63
2023/05/20 01:31:11;;;;;;;;;31.80;26.40;;;;;16.18;70.11;99625.81;6068848;28;96389;-63
2023/05/20 01:34:15;;;;;;;;;28.80;23.60;;;;;16.15;70.33;99620.03;6073763;28;96340;-63
2023/05/20 01:37:19;;;;;;;;;26.00;22.00;;;;;16.09;70.71;99621.00;6052392;28;96390;-63
2023/05/20 01:40:26;;;;;;;;;31.40;26.40;;;;;16.04;71.29;99619.00;6050169;28;96296;-63
2023/05/20 01:43:31;;;;;;;;;25.25;24.00;;;;;16.03;71.35;99614.63;6073910;28;96466;-63
2023/05/20 01:46:34;;;;;;;;;26.00;20.00;;;;;16.07;71.15;99618.53;6056378;28;96920;-64
2023/05/20 01:49:38;;;;;;;;;28.00;25.00;;;;;16.02;71.46;99616.53;6047847;28;97851;-63
2023/05/20 01:52:41;;;;;;;;;25.60;21.60;;;;;16.06;71.57;99621.47;6060284;28;96286;-64
2023/05/20 01:55:46;;;;;;;;;26.00;22.00;;;;;16.00;71.73;99615.09;6042829;28;96641;-63
2023/05/20 01:58:49;;;;;;;;;27.00;22.40;;;;;15.96;71.88;99616.66;6073817;28;99089;-64
2023/05/20 02:01:52;;;;;;;;;26.50;22.50;;;;;16.01;71.91;99616.75;6059061;28;96301;-64
2023/05/20 02:04:56;;;;;;;;;25.75;23.00;;;;;15.99;71.91;99613.44;6076435;28;97393;-64
2023/05/20 02:07:59;;;;;;;;;26.00;23.40;;;;;15.98;72.02;99628.09;6099551;28;96253;-64
2023/05/20 02:11:04;;;;;;;;;24.40;20.20;;;;;15.89;72.40;99616.78;6062675;28;96423;-63
2023/05/20 02:14:08;;;;;;;;;27.50;25.00;;;;;15.90;72.29;99623.88;6099718;28;96351;-63
2023/05/20 02:17:11;;;;;;;;;23.60;20.00;;;;;15.90;72.71;99628.47;6081717;28;96545;-64
2023/05/20 02:20:15;;;;;;;;;28.20;22.60;;;;;15.95;72.47;99628.59;6081179;28;96496;-63
2023/05/20 02:23:18;;;;;;;;;25.40;23.40;;;;;15.95;72.59;99623.16;6073094;28;96353;-64
2023/05/20 02:26:24;;;;;;;;;29.00;24.75;;;;;15.93;72.96;99626.09;6075739;28;96331;-63
2023/05/20 02:29:27;;;;;;;;;26.00;22.00;;;;;15.94;72.94;99630.47;6063609;28;96320;-63
2023/05/20 02:32:32;;;;;;;;;24.60;23.00;;;;;15.93;72.97;99620.66;6074473;28;96874;-63
2023/05/20 02:35:35;;;;;;;;;26.00;23.00;;;;;15.97;72.89;99621.88;6075350;28;96289;-64
2023/05/20 02:38:39;;;;;;;;;25.20;23.00;;;;;16.01;72.99;99625.75;6066747;28;96335;-63
2023/05/20 02:41:47;;;;;;;;;27.40;21.00;;;;;15.99;73.20;99633.31;6075725;28;96289;-63
2023/05/20 02:44:52;;;;;;;;;22.75;20.75;;;;;16.04;72.79;99625.25;6079497;28;96825;-63
2023/05/20 02:47:55;;;;;;;;;30.40;23.00;;;;;16.09;72.86;99631.88;6073932;28;96937;-63
2023/05/20 02:50:59;;;;;;;;;26.20;22.20;;;;;16.08;72.84;99624.81;6075346;28;97115;-64
2023/05/20 02:54:02;;;;;;;;;28.25;23.75;;;;;16.11;72.77;99625.16;6074778;28;96237;-64
2023/05/20 02:57:07;;;;;;;;;23.00;21.00;;;;;16.11;72.67;99632.47;6051319;28;97282;-63
2023/05/20 03:00:12;;;;;;;;;29.40;24.80;;;;;16.09;72.63;99632.69;6072900;28;96526;-63
2023/05/20 03:03:15;;;;;;;;;26.50;22.00;;;;;16.11;72.89;99637.91;6095962;28;96636;-64
2023/05/20 03:06:19;;;;;;;;;29.00;25.00;;;;;16.13;72.85;99633.88;6055894;28;96851;-62
2023/05/20 03:09:22;;;;;;;;;26.80;23.60;;;;;16.13;72.76;99631.16;6069376;28;97634;-62
2023/05/20 03:12:27;;;;;;;;;25.00;22.00;;;;;16.11;72.81;99640.63;6046744;28;97021;-62
2023/05/20 03:15:30;;;;;;;;;28.80;22.80;;;;;16.17;72.69;99632.34;6072258;28;98111;-62
2023/05/20 03:18:34;;;;;;;;;27.00;23.00;;;;;16.19;72.72;99634.81;6050193;28;97609;-62
2023/05/20 03:21:37;;;;;;;;;26.40;23.00;;;;;16.22;72.73;99648.78;6062229;28;96317;-61
2023/05/20 03:24:41;;;;;;;;;26.00;23.60;;;;;16.21;72.61;99640.84;6037929;28;98486;-62
2023/05/20 03:27:49;;;;;;;;;25.50;21.00;;;;;16.22;72.24;99643.34;6035294;28;96997;-62
2023/05/20 03:30:53;;;;;;;;;27.75;21.75;;;;;16.25;72.21;99648.28;6063343;28;96339;-62
2023/05/20 03:33:56;;;;;;;;;26.00;22.60;;;;;16.25;72.38;99642.03;6065081;28;96256;-61
2023/05/20 03:37:00;;;;;;;;;31.50;25.50;;;;;16.26;72.36;99641.78;6050607;28;96476;-61
2023/05/20 03:40:05;;;;;;;;;24.00;20.20;;;;;16.24;72.31;99638.47;6047863;28;96316;-62
2023/05/20 03:43:11;;;;;;;;;25.20;22.00;;;;;16.23;72.60;99639.53;6034002;28;98428;-61
2023/05/20 03:46:15;;;;;;;;;24.20;21.40;;;;;16.27;72.40;99643.41;6056386;28;97662;-61
2023/05/20 03:49:18;;;;;;;;;26.80;22.80;;;;;16.28;72.12;99641.53;6070568;28;96932;-62
2023/05/20 03:52:22;;;;;;;;;19.20;19.00;;;;;16.16;72.28;99624.41;6053464;28;96501;-62
2023/05/20 03:55:26;;;;;;;;;24.60;22.00;;;;;16.21;72.49;99644.41;6058033;28;96540;-62
2023/05/20 03:58:31;;;;;;;;;25.20;21.20;;;;;16.18;72.81;99642.16;6039227;28;96806;-62
2023/05/20 04:01:36;;;;;;;;;26.00;22.60;;;;;16.24;72.66;99638.47;6044891;28;96719;-62
2023/05/20 04:04:41;;;;;;;;;26.40;21.40;;;;;16.23;72.79;99638.69;6063700;28;98443;-62
2023/05/20 04:07:45;;;;;;;;;28.40;25.00;;;;;16.29;72.53;99633.13;6081420;28;96325;-62
2023/05/20 04:10:49;;;;;;;;;27.50;23.00;;;;;16.33;72.63;99634.31;6064926;28;96394;-62
2023/05/20 04:13:54;;;;;;;;;24.50;23.25;;;;;16.35;72.45;99634.91;6094621;28;97136;-61
2023/05/20 04:16:58;;;;;;;;;24.00;23.00;;;;;16.40;72.45;99635.00;6072267;28;96233;-62
2023/05/20 04:20:04;;;;;;;;;25.00;21.60;;;;;16.35;72.51;99631.34;6074731;28;96727;-62
2023/05/20 04:23:08;;;;;;;;;22.00;21.20;;;;;16.37;72.33;99640.91;6082186;28;96194;-61
2023/05/20 04:26:13;;;;;;;;;23.25;19.25;;;;;16.40;72.62;99639.63;6063281;28;96485;-62
2023/05/20 04:29:18;;;;;;;;;25.60;24.00;;;;;16.40;72.70;99640.44;6076683;28;96366;-62
2023/05/20 04:32:22;;;;;;;;;24.00;21.40;;;;;16.34;72.78;99635.97;6056728;28;96950;-62
2023/05/20 04:35:26;;;;;;;;;27.20;22.00;;;;;16.22;72.64;99612.59;6078624;28;96277;-62
2023/05/20 04:38:32;;;;;;;;;24.40;20.00;;;;;16.27;73.28;99634.47;6075989;28;96376;-62
2023/05/20 04:41:36;;;;;;;;;23.20;21.80;;;;;16.30;72.88;99639.41;6044667;28;96641;-62
2023/05/20 04:44:41;;;;;;;;;20.20;20.00;;;;;16.31;72.92;99638.34;6077810;28;96416;-62
2023/05/20 04:47:45;;;;;;;;;22.40;19.00;;;;;16.36;72.93;99635.72;6060740;28;97205;-62
2023/05/20 04:50:50;;;;;;;;;23.60;20.60;;;;;16.35;72.94;99636.78;6088194;28;96275;-62
2023/05/20 04:53:54;;;;;;;;;20.80;19.20;;;;;16.48;73.08;99647.41;6088670;28;96496;-62
2023/05/20 04:56:57;;;;;;;;;24.40;21.40;;;;;16.46;72.95;99644.09;6073156;28;96386;-62
2023/05/20 05:00:06;;;;;;;;;30.00;26.00;;;;;16.56;72.60;99654.38;6070108;28;96812;-62
2023/05/20 05:03:11;;;;;;;;;24.60;22.00;;;;;16.55;72.97;99648.09;6095778;28;96286;-62
2023/05/20 05:06:14;;;;;;;;;21.75;21.00;;;;;16.52;73.06;99655.94;6051011;28;98193;-62
2023/05/20 05:09:18;;;;;;;;;22.00;21.00;;;;;16.60;72.87;99648.22;6055334;28;96598;-62
2023/05/20 05:12:22;;;;;;;;;24.00;22.80;;;;;16.60;73.02;99661.00;6050611;28;98609;-62
2023/05/20 05:15:27;;;;;;;;;21.75;19.50;;;;;16.64;73.16;99660.28;6060466;28;96289;-62
2023/05/20 05:18:30;;;;;;;;;24.00;22.20;;;;;16.70;73.14;99653.06;6054544;28;96824;-62
2023/05/20 05:21:35;;;;;;;;;26.40;23.00;;;;;16.77;73.22;99654.53;6049978;28;96300;-62
2023/05/20 05:24:38;;;;;;;;;26.20;23.00;;;;;16.83;73.33;99652.75;6065227;28;96704;-62
2023/05/20 05:27:43;;;;;;;;;31.20;28.60;;;;;16.85;73.26;99656.06;6063617;28;96298;-62
2023/05/20 05:30:48;;;;;;;;;28.00;24.60;;;;;16.96;73.07;99647.00;6076177;28;96808;-61
2023/05/20 05:33:51;;;;;;;;;24.00;22.00;;;;;17.02;73.11;99648.75;6063503;28;96676;-62
2023/05/20 05:36:55;;;;;;;;;21.80;20.40;;;;;17.07;73.21;99648.84;6051997;28;96389;-61
2023/05/20 05:39:58;;;;;;;;;26.00;24.00;;;;;17.16;72.99;99652.81;6073927;28;99198;-62
2023/05/20 05:43:01;;;;;;;;;23.75;21.75;;;;;17.21;72.67;99654.78;6067319;28;96860;-63
2023/05/20 05:46:08;;;;;;;;;23.75;21.00;;;;;17.22;72.34;99654.56;6067152;28;96761;-63
2023/05/20 05:49:12;;;;;;;;;27.40;21.20;;;;;17.25;72.42;99656.78;6063705;28;96701;-64
2023/05/20 05:52:16;;;;;;;;;25.00;22.00;;;;;17.27;72.67;99654.66;6066998;28;96242;-63
2023/05/20 05:55:19;;;;;;;;;20.50;18.75;;;;;17.36;72.40;99654.22;6066439;28;96484;-63
2023/05/20 05:58:23;;;;;;;;;27.00;23.50;;;;;17.40;72.58;99650.75;6062968;28;97409;-64
2023/05/20 06:01:27;;;;;;;;;28.00;24.00;;;;;17.33;72.65;99652.84;6048973;28;96829;-64
2023/05/20 06:04:31;;;;;;;;;24.25;21.50;;;;;17.26;73.14;99643.97;6066660;28;96579;-63
2023/05/20 06:07:34;;;;;;;;;27.00;25.00;;;;;17.23;73.41;99653.50;6074108;28;97103;-63
2023/05/20 06:10:37;;;;;;;;;25.00;22.00;;;;;17.27;73.46;99651.09;6090669;28;96346;-64
2023/05/20 06:13:41;;;;;;;;;23.00;20.60;;;;;17.31;73.49;99650.34;6069562;28;96637;-64
2023/05/20 06:16:46;;;;;;;;;25.00;23.20;;;;;17.31;73.96;99663.16;6070418;28;96507;-63
2023/05/20 06:19:49;;;;;;;;;23.50;19.50;;;;;17.27;74.01;99656.53;6058797;28;96801;-63
2023/05/20 06:22:53;;;;;;;;;24.75;21.00;;;;;17.12;74.79;99648.94;6089008;28;96950;-63
2023/05/20 06:25:58;;;;;;;;;27.00;25.40;;;;;17.22;75.18;99640.09;6064523;28;97193;-63
2023/05/20 06:29:03;;;;;;;;;25.60;22.60;;;;;17.28;74.98;99645.41;6060131;28;97608;-64
2023/05/20 06:32:08;;;;;;;;;27.80;22.00;;;;;17.37;75.23;99645.81;6078448;28;96527;-63
2023/05/20 06:35:12;;;;;;;;;26.25;23.25;;;;;17.45;75.13;99647.28;6062652;28;96399;-63
2023/05/20 06:38:16;;;;;;;;;27.80;22.00;;;;;17.54;74.56;99652.09;6074500;28;96590;-63
2023/05/20 06:41:21;;;;;;;;;25.00;21.00;;;;;17.66;74.61;99652.84;6076795;28;97246;-63
2023/05/20 06:44:26;;;;;;;;;24.60;19.40;;;;;17.78;74.52;99652.78;6059980;28;96662;-63
2023/05/20 06:47:54;;;;;;;;;24.60;19.80;;;;;17.90;73.76;99649.94;6074416;28;96908;-63
2023/05/20 06:50:57;;;;;;;;;25.75;22.25;;;;;17.89;73.71;99643.66;6065666;28;96502;-64
2023/05/20 06:54:01;;;;;;;;;22.33;20.33;;;;;17.94;74.04;99648.34;6045986;28;96633;-63
2023/05/20 06:57:07;;;;;;;;;29.00;25.00;;;;;17.95;73.99;99634.47;6045681;28;96743;-64
2023/05/20 07:00:13;;;;;;;;;25.80;23.00;;;;;18.20;72.52;99636.72;6057109;28;99175;-63
2023/05/20 07:03:18;;;;;;;;;24.00;22.00;;;;;18.30;72.32;99631.38;6071259;28;96367;-63
2023/05/20 07:06:23;;;;;;;;;24.20;21.40;;;;;18.24;71.97;99634.28;6048501;28;96680;-63
2023/05/20 07:09:26;;;;;;;;;25.60;23.40;;;;;18.42;72.43;99628.53;6065522;28;97175;-63
2023/05/20 07:12:30;;;;;;;;;26.00;24.40;;;;;18.56;71.99;99613.44;6058714;28;96792;-64
2023/05/20 07:15:34;;;;;;;;;24.25;22.00;;;;;18.60;72.14;99603.66;6078132;28;96863;-64
2023/05/20 07:18:40;;;;;;;;;25.60;23.40;;;;;18.76;70.54;99610.94;6063178;28;97171;-64
2023/05/20 07:21:48;;;;;;;;;22.00;19.00;;;;;18.91;70.40;99607.53;6043062;28;96617;-63
2023/05/20 07:25:20;;;;;;;;;22.00;20.75;;;;;18.89;70.03;99609.69;6058843;28;96436;-64
2023/05/20 07:28:24;;;;;;;;;24.00;22.00;;;;;18.98;69.79;99619.06;6065107;28;96976;-64
2023/05/20 07:31:27;;;;;;;;;31.20;25.40;;;;;18.99;69.36;99613.34;6035943;28;98432;-64
2023/05/20 07:34:32;;;;;;;;;25.00;22.00;;;;;18.98;69.56;99610.88;6043891;28;96390;-63
2023/05/20 07:37:36;;;;;;;;;27.40;25.00;;;;;19.18;69.55;99604.75;6032949;28;96559;-63
2023/05/20 07:40:40;;;;;;;;;21.60;20.00;;;;;19.13;69.07;99607.44;6049483;28;96315;-63
2023/05/20 07:43:46;;;;;;;;;25.00;22.00;;;;;19.16;68.89;99605.00;6068049;28;96359;-63
2023/05/20 07:46:49;;;;;;;;;23.25;20.25;;;;;19.35;68.44;99608.19;6055385;28;96679;-63
2023/05/20 07:49:56;;;;;;;;;25.40;22.40;;;;;19.50;67.89;99613.78;6065951;28;96390;-64
2023/05/20 07:52:59;;;;;;;;;20.25;17.25;;;;;19.57;67.46;99614.41;6066122;28;96259;-64
2023/05/20 07:56:05;;;;;;;;;20.00;19.00;;;;;19.42;66.99;99609.63;6066396;28;96519;-63
2023/05/20 07:59:09;;;;;;;;;25.40;22.60;;;;;19.37;66.86;99617.78;6060778;28;99830;-64
2023/05/20 08:02:17;;;;;;;;;22.60;20.40;;;;;19.46;67.55;99604.47;6074883;28;96479;-64
2023/05/20 08:05:23;;;;;;;;;25.60;23.40;;;;;19.58;67.54;99613.31;6042712;28;96851;-63
2023/05/20 08:08:29;;;;;;;;;22.20;20.80;;;;;19.51;67.09;99601.78;6060273;28;96466;-64
2023/05/20 08:11:38;;;;;;;;;25.33;21.00;;;;;19.55;67.12;99602.09;6060348;28;96728;-64
2023/05/20 08:14:42;;;;;;;;;23.00;22.00;;;;;19.37;67.05;99595.06;6075981;28;96649;-63
2023/05/20 08:17:45;;;;;;;;;24.00;18.80;;;;;19.43;67.18;99594.84;6083317;28;96348;-63
2023/05/20 08:20:50;;;;;;;;;25.40;21.00;;;;;19.68;66.66;99594.25;6067017;28;96557;-64
2023/05/20 08:23:55;;;;;;;;;20.00;19.00;;;;;19.84;66.58;99601.44;6088179;28;96867;-64
2023/05/20 08:26:59;;;;;;;;;21.00;20.00;;;;;19.90;66.21;99592.19;6076723;28;96480;-64
2023/05/20 08:30:03;;;;;;;;;24.00;22.50;;;;;19.96;65.18;99586.72;6083999;28;96328;-64
2023/05/20 08:33:06;;;;;;;;;24.00;21.50;;;;;19.95;64.84;99585.91;6086443;28;96388;-64
2023/05/20 08:36:11;;;;;;;;;22.50;19.75;;;;;20.11;65.50;99586.81;6067154;28;98435;-63
2023/05/20 08:39:15;;;;;;;;;26.25;23.00;;;;;20.26;65.74;99578.66;6079989;28;96165;-63
2023/05/20 08:42:22;;;;;;;;;24.00;21.00;;;;;20.17;64.74;99586.56;6097278;28;96343;-63
2023/05/20 08:45:29;;;;;;;;;21.50;19.00;;;;;20.15;64.33;99574.22;6111163;28;96338;-63
2023/05/20 08:48:37;;;;;;;;;25.40;20.40;;;;;20.15;64.39;99591.47;6078253;28;96364;-64
2023/05/20 08:51:42;;;;;;;;;24.80;21.80;;;;;20.29;64.42;99595.38;6081197;28;96264;-64
2023/05/20 08:54:49;;;;;;;;;24.80;22.00;;;;;20.29;64.46;99586.31;6090424;28;96410;-63
2023/05/20 08:57:53;;;;;;;;;24.50;22.50;;;;;20.41;64.54;99586.97;6083696;28;96305;-64
2023/05/20 09:00:57;;;;;;;;;23.20;21.20;;;;;20.35;64.42;99584.47;6108517;28;96211;-64
2023/05/20 09:04:01;;;;;;;;;21.00;20.00;;;;;19.97;64.01;99582.91;6093476;28;96953;-63
2023/05/20 09:07:06;;;;;;;;;27.50;24.00;;;;;19.84;65.16;99574.06;6102745;28;96843;-62
2023/05/20 09:10:10;;;;;;;;;21.20;19.60;;;;;19.77;66.22;99581.72;6086287;28;96534;-62
2023/05/20 09:13:13;;;;;;;;;26.20;24.00;;;;;19.72;66.70;99586.31;6068686;28;98391;-62
2023/05/20 09:16:17;;;;;;;;;29.80;24.00;;;;;19.88;66.54;99588.91;6090132;28;97112;-62
2023/05/20 09:19:20;;;;;;;;;27.40;25.00;;;;;19.67;66.78;99578.91;6108263;28;96309;-62
2023/05/20 09:22:29;;;;;;;;;32.00;24.50;;;;;19.84;66.16;99576.81;6090636;28;98388;-61
2023/05/20 09:25:32;;;;;;;;;28.00;22.50;;;;;19.74;66.27;99576.75;6111110;28;96388;-62
2023/05/20 09:28:38;;;;;;;;;26.80;23.80;;;;;19.51;66.53;99588.09;6107801;28;96660;-62
2023/05/20 09:31:41;;;;;;;;;32.00;27.25;;;;;19.58;66.98;99585.16;6109155;28;96349;-61
2023/05/20 09:34:46;;;;;;;;;28.80;24.80;;;;;19.51;68.17;99577.16;6093832;28;96361;-62
2023/05/20 09:37:55;;;;;;;;;32.80;27.20;;;;;19.87;67.59;99579.03;6089754;28;96245;-62
2023/05/20 09:41:01;;;;;;;;;32.00;28.20;;;;;20.15;67.18;99576.97;6086322;28;96303;-62
2023/05/20 09:44:05;;;;;;;;;27.50;24.50;;;;;20.08;65.59;99577.22;6109021;28;96229;-62
2023/05/20 09:47:09;;;;;;;;;29.00;25.75;;;;;20.14;66.79;99573.41;6108009;28;98125;-61
2023/05/20 09:50:14;;;;;;;;;29.40;27.40;;;;;20.21;66.04;99571.25;6109046;28;96265;-61
2023/05/20 09:53:19;;;;;;;;;31.00;29.00;;;;;20.33;65.31;99570.25;6075629;28;98403;-61
2023/05/20 09:56:25;;;;;;;;;27.75;24.75;;;;;20.34;64.87;99567.22;6097424;28;96318;-62
2023/05/20 09:59:31;;;;;;;;;28.00;25.20;;;;;20.59;64.79;99559.06;6087256;28;96281;-61
2023/05/20 10:02:35;;;;;;;;;35.00;29.00;;;;;20.42;65.67;99563.16;6090585;28;97139;-61
2023/05/20 10:05:43;;;;;;;;;31.60;27.60;;;;;20.65;63.94;99566.22;6098245;28;96462;-61
2023/05/20 10:09:05;;;;;;;;;32.60;29.00;;;;;20.90;63.58;99559.94;6098857;28;97611;-61
2023/05/20 10:12:27;;;;;;;;;28.60;25.00;;;;;21.13;63.74;99559.44;6097105;28;96266;-61
2023/05/20 10:15:41;;;;;;;;;30.00;24.50;;;;;21.30;62.88;99558.34;6087353;28;96661;-61
2023/05/20 10:18:55;;;;;;;;;33.20;29.60;;;;;21.41;61.87;99548.97;6094752;28;96449;-61
2023/05/20 10:22:00;;;;;;;;;29.80;26.80;;;;;21.24;61.59;99545.72;6075340;28;96216;-62
2023/05/20 10:25:07;;;;;;;;;30.50;27.50;;;;;21.55;61.75;99553.63;6094451;28;96941;-61
2023/05/20 10:28:11;;;;;;;;;31.80;26.00;;;;;21.73;61.13;99559.63;6068761;28;96724;-61
2023/05/20 10:31:18;;;;;;;;;31.00;29.67;;;;;21.88;60.67;99548.63;6084586;28;96385;-61
2023/05/20 10:34:23;;;;;;;;;33.40;30.00;;;;;22.22;59.36;99543.31;6087538;28;96246;-62
2023/05/20 10:37:30;;;;;;;;;33.60;29.20;;;;;22.44;57.49;99538.22;6083113;28;97188;-61
2023/05/20 10:40:35;;;;;;;;;36.00;29.00;;;;;22.83;55.66;99546.53;6065826;28;97296;-61
2023/05/20 10:43:39;;;;;;;;;28.00;25.00;;;;;23.09;54.84;99553.47;6079479;28;98418;-61
2023/05/20 10:46:42;;;;;;;;;33.20;29.60;;;;;23.08;53.85;99554.59;6082261;28;96476;-61
2023/05/20 10:49:50;;;;;;;;;33.00;28.80;;;;;22.93;54.46;99551.13;6089506;28;97537;-61
2023/05/20 10:52:54;;;;;;;;;30.60;29.00;;;;;22.91;54.34;99543.19;6098547;28;96269;-62
2023/05/20 10:55:58;;;;;;;;;30.40;27.60;;;;;23.33;54.25;99556.31;6076259;28;96598;-61
2023/05/20 10:59:02;;;;;;;;;28.60;25.60;;;;;23.37;53.83;99549.09;6096897;28;96896;-61
2023/05/20 11:02:06;;;;;;;;;30.00;26.00;;;;;23.58;53.36;99549.78;6092565;28;96673;-61
2023/05/20 11:05:11;;;;;;;;;27.80;26.40;;;;;23.56;52.87;99546.47;6074816;28;97102;-61
2023/05/20 11:08:15;;;;;;;;;31.50;28.00;;;;;23.90;52.03;99525.16;6077440;28;96384;-61
2023/05/20 11:11:32;;;;;;;;;30.80;27.60;;;;;24.40;51.44;99533.94;6091046;28;96415;-62
2023/05/20 11:14:35;;;;;;;;;27.40;25.00;;;;;24.69;50.67;99523.59;6089082;28;96318;-61
2023/05/20 11:17:38;;;;;;;;;28.75;25.75;;;;;24.88;49.76;99518.91;6104195;28;96652;-62
2023/05/20 11:20:42;;;;;;;;;27.75;25.25;;;;;25.28;49.14;99500.03;6104660;28;96896;-61
2023/05/20 11:23:46;;;;;;;;;28.40;25.40;;;;;25.76;48.68;99503.28;6105950;28;96567;-62
2023/05/20 11:26:51;;;;;;;;;27.00;25.00;;;;;26.14;47.47;99490.06;6077005;28;96682;-61
2023/05/20 11:29:55;;;;;;;;;32.80;25.40;;;;;26.29;45.56;99495.31;6079214;28;96694;-61
2023/05/20 11:32:59;;;;;;;;;29.00;25.60;;;;;26.31;45.98;99490.25;6096111;28;96642;-61
2023/05/20 11:36:03;;;;;;;;;26.80;24.60;;;;;26.22;45.00;99479.13;6104186;28;97706;-61
2023/05/20 11:39:14;;;;;;;;;26.20;23.20;;;;;26.51;46.19;99491.75;6084108;28;96503;-61
2023/05/20 11:42:19;;;;;;;;;28.00;25.80;;;;;26.69;44.55;99477.75;6085782;28;96372;-61
2023/05/20 11:45:23;;;;;;;;;31.00;29.80;;;;;26.25;44.30;99480.44;6097680;28;98324;-61
2023/05/20 11:48:26;;;;;;;;;31.25;27.25;;;;;26.09;45.39;99490.19;6101785;28;96896;-61
2023/05/20 11:51:30;;;;;;;;;25.25;24.00;;;;;26.49;46.40;99478.22;6105709;28;96302;-61
2023/05/20 11:54:35;;;;;;;;;29.50;27.00;;;;;26.59;43.29;99486.28;6076368;28;98463;-62
2023/05/20 11:57:40;;;;;;;;;31.60;26.00;;;;;26.79;43.75;99484.97;6092573;28;96895;-61
2023/05/20 12:00:44;;;;;;;;;29.00;25.00;;;;;26.94;43.43;99486.59;6093543;28;96280;-61
2023/05/20 12:03:56;;;;;;;;;26.20;25.00;;;;;26.93;42.97;99466.41;6076969;28;97122;-61
2023/05/20 12:07:00;;;;;;;;;32.40;28.00;;;;;27.24;43.11;99483.03;6089835;28;96465;-61
2023/05/20 12:10:04;;;;;;;;;96.20;64.00;;;;;27.19;43.04;99482.34;6091669;28;96291;-61
2023/05/20 12:13:10;;;;;;;;;32.00;29.20;;;;;27.24;43.39;99476.69;6074379;28;98449;-61
2023/05/20 12:16:13;;;;;;;;;29.40;26.80;;;;;27.25;43.52;99472.78;6092040;28;96445;-61
2023/05/20 12:19:17;;;;;;;;;32.00;28.50;;;;;27.30;43.64;99456.88;6086374;28;96225;-62
2023/05/20 12:22:20;;;;;;;;;34.00;28.00;;;;;27.24;42.77;99463.66;6092111;28;96473;-62
2023/05/20 12:25:23;;;;;;;;;33.00;28.75;;;;;27.49;42.66;99457.47;6092999;28;96540;-62
2023/05/20 12:28:28;;;;;;;;;35.40;31.00;;;;;27.19;43.05;99452.72;6091778;28;96532;-62
2023/05/20 12:31:32;;;;;;;;;36.00;30.00;;;;;26.90;44.07;99447.66;6075656;28;96394;-62
2023/05/20 12:34:37;;;;;;;;;30.25;28.50;;;;;26.82;44.27;99430.97;6073456;28;96307;-61
2023/05/20 12:37:42;;;;;;;;;30.20;27.40;;;;;26.93;44.51;99430.41;6093502;28;97281;-62
2023/05/20 12:40:45;;;;;;;;;32.00;29.00;;;;;26.97;44.09;99430.63;6096792;28;96204;-61
2023/05/20 12:43:50;;;;;;;;;31.00;26.00;;;;;26.89;44.42;99412.00;6091889;28;96098;-61
2023/05/20 12:46:54;;;;;;;;;28.80;27.80;;;;;26.68;45.24;99422.75;6091550;28;96305;-61
2023/05/20 12:49:58;;;;;;;;;27.50;26.00;;;;;26.56;44.79;99419.72;6090288;28;96707;-61
2023/05/20 12:53:02;;;;;;;;;30.80;29.00;;;;;26.40;46.37;99422.03;6075234;28;98439;-61
2023/05/20 12:56:05;;;;;;;;;28.80;27.00;;;;;26.69;47.03;99397.53;6074065;28;97726;-62
2023/05/20 12:59:11;;;;;;;;;27.40;25.00;;;;;26.88;45.81;99400.13;6093265;28;96958;-61
2023/05/20 13:02:14;;;;;;;;;30.75;27.00;;;;;27.17;45.38;99404.38;6092431;28;96306;-62
2023/05/20 13:05:18;;;;;;;;;29.00;25.00;;;;;27.23;43.80;99390.03;6093464;28;96455;-61
2023/05/20 13:08:22;;;;;;;;;29.00;26.80;;;;;27.37;43.95;99392.69;6064976;28;96678;-62
2023/05/20 13:11:25;;;;;;;;;26.60;24.20;;;;;27.56;44.58;99390.53;6108958;28;96298;-61
2023/05/20 13:14:30;;;;;;;;;24.50;23.00;;;;;27.64;43.91;99392.50;6096244;28;97316;-63
2023/05/20 13:17:33;;;;;;;;;22.80;20.00;;;;;27.67;43.24;99388.25;6093967;28;96331;-62
2023/05/20 13:20:37;;;;;;;;;27.60;25.60;;;;;27.79;43.01;99382.94;6078953;28;96810;-63
2023/05/20 13:23:42;;;;;;;;;25.00;24.00;;;;;27.55;43.07;99377.81;6076699;28;96071;-64
2023/05/20 13:26:48;;;;;;;;;23.00;20.33;;;;;27.53;44.40;99378.13;6089571;28;96593;-64
2023/05/20 13:29:54;;;;;;;;;26.25;24.00;;;;;27.55;45.01;99370.34;6085569;28;96947;-65
2023/05/20 13:32:58;;;;;;;;;24.20;23.00;;;;;27.76;44.86;99364.97;6087457;28;96271;-65
2023/05/20 13:36:01;;;;;;;;;25.00;24.00;;;;;28.01;44.79;99364.19;6089809;28;96880;-64
2023/05/20 13:39:05;;;;;;;;;24.50;23.50;;;;;28.23;44.88;99371.59;6101413;28;96937;-65
2023/05/20 13:42:08;;;;;;;;;21.00;20.00;;;;;28.29;44.68;99361.97;6062852;28;96662;-64
2023/05/20 13:45:13;;;;;;;;;23.00;22.00;;;;;27.95;43.12;99371.03;6088869;28;96558;-65
2023/05/20 13:48:17;;;;;;;;;25.00;21.00;;;;;27.39;43.96;99351.66;6077144;28;97415;-64
2023/05/20 13:51:20;;;;;;;;;26.00;22.20;;;;;27.02;45.09;99356.59;6095037;28;96431;-64
2023/05/20 13:54:25;;;;;;;;;22.60;21.80;;;;;27.36;46.14;99349.56;6080515;28;97925;-65
2023/05/20 13:57:28;;;;;;;;;24.00;22.40;;;;;27.27;46.03;99345.94;6093583;28;97279;-65
2023/05/20 14:00:33;;;;;;;;;25.00;23.50;;;;;27.58;46.09;99346.69;6093696;28;96315;-64
2023/05/20 14:03:38;;;;;;;;;24.00;22.00;;;;;27.66;45.91;99334.81;6092790;28;96758;-64
2023/05/20 14:06:42;;;;;;;;;24.60;22.60;;;;;27.53;45.44;99342.13;6096483;28;97186;-64
2023/05/20 14:09:45;;;;;;;;;19.25;18.75;;;;;27.70;45.41;99335.00;6079302;28;96815;-65